Airfield :
LOGIN :

Register | Disclaimer

   EN    FR    IT 

 










Legend :    VFR   Marginal VFR   IFR   Intensive IFR   Very Intensive IFR
Visi :
Ceiling :
>= 8 km
>= 3000ft
5 to 8 km
1000 to 3000 ft
1500m to 5 km
500 to 1000 ft
800 to 1500m
200 to 500 ft
< 800m
< 200 ft
Symbols :   Thunderstorms  Fog  Heavy snow  Heavy precipitations  Wind > 20 kt
SIGMETs :     Misc.  Thunderstorms  Icing  Turbulence  Mountain Waves  Volcanic Ashes






- Airport Elevation : 20 ft
- IATA code : OBN


EGEO - Oban

CURRENT METAR :
  • 021220Z 14006KT 9999 SCT016 BKN027 09/06 Q1027

EXPIRED METARs :
  • 021150Z 14005KT 9999 SCT016 BKN028 09/07 Q1027
  • 021050Z 14007KT 9999 BKN016 09/07 Q1027
  • 021020Z 13004KT 9999 BKN016 09/07 Q1027
  • 020950Z 13006KT 9999 BKN016 09/07 Q1027

TAF TAF EGEO
Valid from the 02 at 12:00 until the 02 at 17:00 UTC


021102Z 0212/0217 13007KT 9999 SCT020
TEMPO 0212/0217 BKN014
PROB30
TEMPO 0212/0217 7000 -RA



MET'MAP, your aeronautical weather chart ! - Copyright ORBIFLY December 2007 - Disclaimer

ORBIFLY MET'MAP TEAM :

Programming & Development : Alexandra Zaïnal
Original concept : Baudouin d'Aumeries
Technical & hardware support : Manuel Goepfert
Assistance : Marc-Olivier Méhu




SOURCES & CREDITS :

   NOAA